sensor_id;sensor_type;location;lat;lon;timestamp;pressure;altitude;pressure_sealevel;temperature;humidity
72585;BME280;60618;40.084;32.908;2023-08-07T00:02:03;89046.53;;;25.62;46.31
72585;BME280;60618;40.084;32.908;2023-08-07T00:04:30;89046.53;;;25.52;45.76
72585;BME280;60618;40.084;32.908;2023-08-07T00:07:01;89055.00;;;25.56;45.95
72585;BME280;60618;40.084;32.908;2023-08-07T00:09:28;89051.97;;;25.52;46.24
72585;BME280;60618;40.084;32.908;2023-08-07T00:11:55;89056.19;;;25.43;46.16
72585;BME280;60618;40.084;32.908;2023-08-07T00:14:25;89052.72;;;25.43;46.26
72585;BME280;60618;40.084;32.908;2023-08-07T00:16:52;89051.16;;;25.40;46.32
72585;BME280;60618;40.084;32.908;2023-08-07T00:19:19;89052.16;;;25.35;46.17
72585;BME280;60618;40.084;32.908;2023-08-07T00:21:46;89048.00;;;25.34;46.13
72585;BME280;60618;40.084;32.908;2023-08-07T00:24:13;89049.88;;;25.31;46.11
72585;BME280;60618;40.084;32.908;2023-08-07T00:26:40;89038.25;;;25.21;46.17
72585;BME280;60618;40.084;32.908;2023-08-07T00:29:07;89039.94;;;24.97;46.51
72585;BME280;60618;40.084;32.908;2023-08-07T00:31:34;89037.66;;;24.84;47.02
72585;BME280;60618;40.084;32.908;2023-08-07T00:34:01;89039.22;;;24.77;46.91
72585;BME280;60618;40.084;32.908;2023-08-07T00:36:28;89040.94;;;24.73;47.45
72585;BME280;60618;40.084;32.908;2023-08-07T00:38:55;89041.22;;;24.77;47.19
72585;BME280;60618;40.084;32.908;2023-08-07T00:41:22;89052.25;;;24.79;46.97
72585;BME280;60618;40.084;32.908;2023-08-07T00:43:50;89045.97;;;24.86;46.13
72585;BME280;60618;40.084;32.908;2023-08-07T00:46:17;89042.25;;;24.91;46.04
72585;BME280;60618;40.084;32.908;2023-08-07T00:48:45;89043.53;;;25.00;45.46
72585;BME280;60618;40.084;32.908;2023-08-07T00:51:13;89044.97;;;25.01;45.43
72585;BME280;60618;40.084;32.908;2023-08-07T00:53:40;89041.69;;;25.02;45.47
72585;BME280;60618;40.084;32.908;2023-08-07T00:56:07;89039.13;;;25.04;44.80
72585;BME280;60618;40.084;32.908;2023-08-07T00:58:34;89046.56;;;25.13;44.57
72585;BME280;60618;40.084;32.908;2023-08-07T01:01:03;89037.09;;;25.14;44.35
72585;BME280;60618;40.084;32.908;2023-08-07T01:03:31;89043.97;;;25.15;44.62
72585;BME280;60618;40.084;32.908;2023-08-07T01:05:58;89047.72;;;25.10;44.45
72585;BME280;60618;40.084;32.908;2023-08-07T01:08:25;89046.44;;;25.11;44.34
72585;BME280;60618;40.084;32.908;2023-08-07T01:13:45;89047.97;;;24.95;44.33
72585;BME280;60618;40.084;32.908;2023-08-07T01:16:39;89048.81;;;24.88;44.51
72585;BME280;60618;40.084;32.908;2023-08-07T01:19:03;89041.66;;;24.83;44.44
72585;BME280;60618;40.084;32.908;2023-08-07T01:21:32;89052.97;;;24.79;44.49
72585;BME280;60618;40.084;32.908;2023-08-07T01:23:59;89057.69;;;24.79;44.55
72585;BME280;60618;40.084;32.908;2023-08-07T01:26:26;89051.66;;;24.71;44.85
72585;BME280;60618;40.084;32.908;2023-08-07T01:32:03;89064.16;;;24.74;44.68
72585;BME280;60618;40.084;32.908;2023-08-07T01:34:35;89055.84;;;24.72;44.73
72585;BME280;60618;40.084;32.908;2023-08-07T01:37:03;89066.56;;;24.70;44.54
72585;BME280;60618;40.084;32.908;2023-08-07T01:39:32;89067.59;;;24.74;44.36
72585;BME280;60618;40.084;32.908;2023-08-07T01:41:59;89064.44;;;24.78;44.45
72585;BME280;60618;40.084;32.908;2023-08-07T01:44:26;89070.03;;;24.80;44.36
72585;BME280;60618;40.084;32.908;2023-08-07T01:46:53;89064.03;;;24.72;44.49
72585;BME280;60618;40.084;32.908;2023-08-07T01:49:21;89067.13;;;24.58;44.50
72585;BME280;60618;40.084;32.908;2023-08-07T01:51:48;89071.88;;;24.58;44.44
72585;BME280;60618;40.084;32.908;2023-08-07T01:54:15;89077.56;;;24.52;44.63
72585;BME280;60618;40.084;32.908;2023-08-07T01:56:42;89074.72;;;24.50;44.65
72585;BME280;60618;40.084;32.908;2023-08-07T01:59:09;89081.00;;;24.43;44.87
72585;BME280;60618;40.084;32.908;2023-08-07T02:01:35;89084.41;;;24.34;44.95
72585;BME280;60618;40.084;32.908;2023-08-07T02:04:03;89079.06;;;24.26;44.79
72585;BME280;60618;40.084;32.908;2023-08-07T02:06:30;89083.63;;;24.24;44.93
72585;BME280;60618;40.084;32.908;2023-08-07T02:08:57;89086.06;;;24.20;44.99
72585;BME280;60618;40.084;32.908;2023-08-07T02:11:24;89084.44;;;24.17;45.01
72585;BME280;60618;40.084;32.908;2023-08-07T02:13:51;89081.72;;;24.17;45.21
72585;BME280;60618;40.084;32.908;2023-08-07T02:16:18;89085.59;;;24.14;44.95
72585;BME280;60618;40.084;32.908;2023-08-07T02:18:45;89079.72;;;24.17;44.81
72585;BME280;60618;40.084;32.908;2023-08-07T02:21:12;89081.69;;;24.34;44.19
72585;BME280;60618;40.084;32.908;2023-08-07T02:23:38;89082.19;;;24.23;44.65
72585;BME280;60618;40.084;32.908;2023-08-07T02:26:05;89088.22;;;24.21;44.96
72585;BME280;60618;40.084;32.908;2023-08-07T02:28:32;89082.63;;;24.19;45.08
72585;BME280;60618;40.084;32.908;2023-08-07T02:30:59;89087.06;;;24.24;44.79
72585;BME280;60618;40.084;32.908;2023-08-07T02:33:26;89095.09;;;24.22;44.68
72585;BME280;60618;40.084;32.908;2023-08-07T02:35:53;89110.84;;;24.24;44.67
72585;BME280;60618;40.084;32.908;2023-08-07T02:38:20;89108.91;;;24.34;44.53
72585;BME280;60618;40.084;32.908;2023-08-07T02:40:47;89099.25;;;23.96;45.74
72585;BME280;60618;40.084;32.908;2023-08-07T02:43:14;89110.94;;;23.62;46.17
72585;BME280;60618;40.084;32.908;2023-08-07T02:45:41;89105.78;;;23.22;47.75
72585;BME280;60618;40.084;32.908;2023-08-07T02:48:08;89109.22;;;23.05;48.25
72585;BME280;60618;40.084;32.908;2023-08-07T02:50:35;89105.78;;;23.05;48.07
72585;BME280;60618;40.084;32.908;2023-08-07T02:53:02;89105.38;;;23.26;47.06
72585;BME280;60618;40.084;32.908;2023-08-07T02:55:29;89110.63;;;23.41;47.01
72585;BME280;60618;40.084;32.908;2023-08-07T02:57:56;89117.28;;;23.47;47.68
72585;BME280;60618;40.084;32.908;2023-08-07T03:00:23;89123.66;;;23.42;47.55
72585;BME280;60618;40.084;32.908;2023-08-07T03:02:50;89115.09;;;23.63;46.89
72585;BME280;60618;40.084;32.908;2023-08-07T03:05:17;89115.78;;;23.81;46.01
72585;BME280;60618;40.084;32.908;2023-08-07T03:07:44;89119.25;;;23.82;46.08
72585;BME280;60618;40.084;32.908;2023-08-07T03:10:11;89117.53;;;23.86;45.95
72585;BME280;60618;40.084;32.908;2023-08-07T03:12:38;89118.16;;;23.94;45.60
72585;BME280;60618;40.084;32.908;2023-08-07T03:15:06;89123.50;;;23.75;46.52
72585;BME280;60618;40.084;32.908;2023-08-07T03:17:33;89124.31;;;22.99;48.86
72585;BME280;60618;40.084;32.908;2023-08-07T03:20:00;89122.88;;;22.73;50.14
72585;BME280;60618;40.084;32.908;2023-08-07T03:22:26;89124.63;;;22.85;49.50
72585;BME280;60618;40.084;32.908;2023-08-07T03:24:53;89128.69;;;22.52;50.93
72585;BME280;60618;40.084;32.908;2023-08-07T03:27:21;89137.53;;;22.77;50.23
72585;BME280;60618;40.084;32.908;2023-08-07T03:29:48;89135.13;;;22.81;50.60
72585;BME280;60618;40.084;32.908;2023-08-07T03:32:15;89146.59;;;22.72;50.21
72585;BME280;60618;40.084;32.908;2023-08-07T03:34:43;89140.28;;;22.94;49.58
72585;BME280;60618;40.084;32.908;2023-08-07T03:37:09;89138.69;;;23.26;48.63
72585;BME280;60618;40.084;32.908;2023-08-07T03:39:37;89132.16;;;23.46;48.45
72585;BME280;60618;40.084;32.908;2023-08-07T03:42:04;89135.97;;;23.61;47.93
72585;BME280;60618;40.084;32.908;2023-08-07T03:44:31;89143.97;;;23.76;47.54
72585;BME280;60618;40.084;32.908;2023-08-07T03:46:58;89139.31;;;23.51;48.48
72585;BME280;60618;40.084;32.908;2023-08-07T03:49:25;89141.75;;;23.30;49.23
72585;BME280;60618;40.084;32.908;2023-08-07T03:51:52;89153.47;;;23.15;49.78
72585;BME280;60618;40.084;32.908;2023-08-07T03:54:19;89152.59;;;22.96;50.31
72585;BME280;60618;40.084;32.908;2023-08-07T03:56:46;89142.00;;;22.82;50.82
72585;BME280;60618;40.084;32.908;2023-08-07T03:59:13;89146.22;;;23.01;50.02
72585;BME280;60618;40.084;32.908;2023-08-07T04:01:40;89153.72;;;23.27;49.01
72585;BME280;60618;40.084;32.908;2023-08-07T04:04:07;89143.97;;;23.59;48.33
72585;BME280;60618;40.084;32.908;2023-08-07T04:06:37;89150.75;;;23.85;47.58
72585;BME280;60618;40.084;32.908;2023-08-07T04:09:04;89154.91;;;24.13;47.26
72585;BME280;60618;40.084;32.908;2023-08-07T04:11:31;89144.75;;;24.40;46.66
72585;BME280;60618;40.084;32.908;2023-08-07T04:13:58;89153.72;;;24.70;45.29
72585;BME280;60618;40.084;32.908;2023-08-07T04:16:24;89158.72;;;25.00;44.71
72585;BME280;60618;40.084;32.908;2023-08-07T04:18:51;89161.50;;;25.29;44.08
72585;BME280;60618;40.084;32.908;2023-08-07T04:21:18;89159.34;;;25.66;43.76
72585;BME280;60618;40.084;32.908;2023-08-07T04:23:45;89150.31;;;26.02;42.98
72585;BME280;60618;40.084;32.908;2023-08-07T04:26:12;89164.47;;;26.30;41.73
72585;BME280;60618;40.084;32.908;2023-08-07T04:28:39;89167.66;;;26.26;41.64
72585;BME280;60618;40.084;32.908;2023-08-07T04:31:06;89159.53;;;25.97;41.74
72585;BME280;60618;40.084;32.908;2023-08-07T04:33:34;89171.38;;;26.21;42.63
72585;BME280;60618;40.084;32.908;2023-08-07T04:36:01;89162.25;;;26.57;41.57
72585;BME280;60618;40.084;32.908;2023-08-07T04:38:27;89167.81;;;27.00;40.76
72585;BME280;60618;40.084;32.908;2023-08-07T04:40:54;89171.13;;;27.30;39.40
72585;BME280;60618;40.084;32.908;2023-08-07T04:43:21;89181.50;;;26.59;40.60
72585;BME280;60618;40.084;32.908;2023-08-07T04:45:48;89177.88;;;26.07;41.89
72585;BME280;60618;40.084;32.908;2023-08-07T04:48:16;89180.31;;;25.54;43.03
72585;BME280;60618;40.084;32.908;2023-08-07T04:50:43;89177.75;;;25.66;42.87
72585;BME280;60618;40.084;32.908;2023-08-07T04:53:10;89180.25;;;26.31;41.74
72585;BME280;60618;40.084;32.908;2023-08-07T04:55:38;89178.63;;;26.98;40.56
72585;BME280;60618;40.084;32.908;2023-08-07T04:58:05;89183.88;;;27.68;38.81
72585;BME280;60618;40.084;32.908;2023-08-07T05:00:32;89188.28;;;28.27;38.10
72585;BME280;60618;40.084;32.908;2023-08-07T05:02:59;89180.06;;;28.84;36.77
72585;BME280;60618;40.084;32.908;2023-08-07T05:05:27;89179.59;;;28.76;36.60
72585;BME280;60618;40.084;32.908;2023-08-07T05:07:54;89184.09;;;28.60;36.60
72585;BME280;60618;40.084;32.908;2023-08-07T05:10:22;89185.53;;;28.61;36.80
72585;BME280;60618;40.084;32.908;2023-08-07T05:12:49;89197.16;;;27.83;37.51
72585;BME280;60618;40.084;32.908;2023-08-07T05:15:16;89200.22;;;27.78;38.50
72585;BME280;60618;40.084;32.908;2023-08-07T05:17:43;89196.03;;;27.55;38.66
72585;BME280;60618;40.084;32.908;2023-08-07T05:20:10;89202.34;;;27.58;39.00
72585;BME280;60618;40.084;32.908;2023-08-07T05:22:37;89202.91;;;27.87;38.24
72585;BME280;60618;40.084;32.908;2023-08-07T05:25:06;89208.75;;;28.26;37.91
72585;BME280;60618;40.084;32.908;2023-08-07T05:27:33;89205.47;;;28.40;37.27
72585;BME280;60618;40.084;32.908;2023-08-07T05:30:00;89210.75;;;28.47;37.31
72585;BME280;60618;40.084;32.908;2023-08-07T05:32:27;89201.88;;;28.82;36.95
72585;BME280;60618;40.084;32.908;2023-08-07T05:34:54;89204.56;;;29.03;36.16
72585;BME280;60618;40.084;32.908;2023-08-07T05:37:21;89207.63;;;29.45;35.90
72585;BME280;60618;40.084;32.908;2023-08-07T05:39:48;89202.00;;;29.78;34.80
72585;BME280;60618;40.084;32.908;2023-08-07T05:42:15;89201.69;;;30.09;34.00
72585;BME280;60618;40.084;32.908;2023-08-07T05:44:42;89205.66;;;29.94;34.53
72585;BME280;60618;40.084;32.908;2023-08-07T05:47:09;89202.13;;;29.68;34.95
72585;BME280;60618;40.084;32.908;2023-08-07T05:49:36;89201.81;;;29.50;35.13
72585;BME280;60618;40.084;32.908;2023-08-07T05:52:03;89203.56;;;29.69;35.48
72585;BME280;60618;40.084;32.908;2023-08-07T05:54:31;89208.97;;;30.04;35.37
72585;BME280;60618;40.084;32.908;2023-08-07T05:56:58;89205.75;;;30.08;34.46
72585;BME280;60618;40.084;32.908;2023-08-07T05:59:25;89203.56;;;29.46;35.24
72585;BME280;60618;40.084;32.908;2023-08-07T06:01:53;89216.84;;;29.49;35.56
72585;BME280;60618;40.084;32.908;2023-08-07T06:04:23;89212.91;;;29.52;35.51
72585;BME280;60618;40.084;32.908;2023-08-07T06:06:50;89203.34;;;29.30;37.06
72585;BME280;60618;40.084;32.908;2023-08-07T06:09:17;89212.94;;;28.84;37.26
72585;BME280;60618;40.084;32.908;2023-08-07T06:11:44;89220.28;;;28.46;37.45
72585;BME280;60618;40.084;32.908;2023-08-07T06:14:11;89212.63;;;29.01;37.60
72585;BME280;60618;40.084;32.908;2023-08-07T06:16:38;89207.50;;;29.54;36.52
72585;BME280;60618;40.084;32.908;2023-08-07T06:19:05;89215.63;;;29.17;37.45
72585;BME280;60618;40.084;32.908;2023-08-07T06:21:46;89210.63;;;28.57;37.90
72585;BME280;60618;40.084;32.908;2023-08-07T06:24:13;89218.16;;;28.56;38.55
72585;BME280;60618;40.084;32.908;2023-08-07T06:26:40;89220.44;;;28.72;38.21
72585;BME280;60618;40.084;32.908;2023-08-07T06:29:07;89212.63;;;28.33;38.89
72585;BME280;60618;40.084;32.908;2023-08-07T06:31:35;89216.97;;;28.60;38.77
72585;BME280;60618;40.084;32.908;2023-08-07T06:34:02;89222.03;;;28.87;38.09
72585;BME280;60618;40.084;32.908;2023-08-07T06:36:29;89222.16;;;29.47;37.49
72585;BME280;60618;40.084;32.908;2023-08-07T06:38:56;89221.59;;;29.37;36.90
72585;BME280;60618;40.084;32.908;2023-08-07T06:41:23;89216.78;;;29.73;36.63
72585;BME280;60618;40.084;32.908;2023-08-07T06:43:50;89222.31;;;29.26;36.77
72585;BME280;60618;40.084;32.908;2023-08-07T06:46:17;89215.63;;;29.29;37.69
72585;BME280;60618;40.084;32.908;2023-08-07T06:48:44;89220.63;;;28.97;37.45
72585;BME280;60618;40.084;32.908;2023-08-07T06:51:11;89229.91;;;28.92;38.18
72585;BME280;60618;40.084;32.908;2023-08-07T06:53:38;89220.44;;;28.72;38.37
72585;BME280;60618;40.084;32.908;2023-08-07T06:56:05;89213.94;;;28.32;38.80
72585;BME280;60618;40.084;32.908;2023-08-07T06:58:32;89219.09;;;28.49;39.03
72585;BME280;60618;40.084;32.908;2023-08-07T07:00:59;89222.91;;;28.56;38.45
72585;BME280;60618;40.084;32.908;2023-08-07T07:03:26;89230.38;;;28.89;37.47
72585;BME280;60618;40.084;32.908;2023-08-07T07:05:53;89222.69;;;28.64;37.37
72585;BME280;60618;40.084;32.908;2023-08-07T07:08:20;89223.00;;;28.91;37.04
72585;BME280;60618;40.084;32.908;2023-08-07T07:10:47;89227.31;;;28.94;36.63
72585;BME280;60618;40.084;32.908;2023-08-07T07:13:14;89222.03;;;28.87;36.68
72585;BME280;60618;40.084;32.908;2023-08-07T07:15:41;89225.56;;;28.66;37.40
72585;BME280;60618;40.084;32.908;2023-08-07T07:18:08;89217.34;;;28.66;37.02
72585;BME280;60618;40.084;32.908;2023-08-07T07:20:35;89215.25;;;28.99;36.71
72585;BME280;60618;40.084;32.908;2023-08-07T07:23:02;89226.63;;;28.61;36.57
72585;BME280;60618;40.084;32.908;2023-08-07T07:25:29;89214.84;;;28.70;35.90
72585;BME280;60618;40.084;32.908;2023-08-07T07:27:56;89226.59;;;29.05;35.71
72585;BME280;60618;40.084;32.908;2023-08-07T07:30:23;89225.75;;;29.38;34.85
72585;BME280;60618;40.084;32.908;2023-08-07T07:32:50;89224.22;;;29.35;34.70
72585;BME280;60618;40.084;32.908;2023-08-07T07:35:17;89229.84;;;29.60;33.85
72585;BME280;60618;40.084;32.908;2023-08-07T07:37:44;89226.84;;;29.33;34.41
72585;BME280;60618;40.084;32.908;2023-08-07T07:40:11;89232.56;;;29.37;35.04
72585;BME280;60618;40.084;32.908;2023-08-07T07:42:38;89237.34;;;29.48;35.23
72585;BME280;60618;40.084;32.908;2023-08-07T07:45:06;89225.66;;;29.36;33.82
72585;BME280;60618;40.084;32.908;2023-08-07T07:47:33;89233.00;;;28.87;34.83
72585;BME280;60618;40.084;32.908;2023-08-07T07:50:07;89233.75;;;29.10;34.61
72585;BME280;60618;40.084;32.908;2023-08-07T07:52:35;89235.66;;;29.20;34.96
72585;BME280;60618;40.084;32.908;2023-08-07T07:55:02;89235.94;;;29.59;34.39
72585;BME280;60618;40.084;32.908;2023-08-07T07:57:29;89237.28;;;29.95;34.07
72585;BME280;60618;40.084;32.908;2023-08-07T07:59:55;89242.06;;;29.83;33.70
72585;BME280;60618;40.084;32.908;2023-08-07T08:02:22;89235.03;;;29.80;33.61
72585;BME280;60618;40.084;32.908;2023-08-07T08:04:51;89237.03;;;29.91;32.99
72585;BME280;60618;40.084;32.908;2023-08-07T08:07:18;89232.75;;;30.11;33.13
72585;BME280;60618;40.084;32.908;2023-08-07T08:09:45;89232.94;;;30.15;32.56
72585;BME280;60618;40.084;32.908;2023-08-07T08:12:12;89236.97;;;30.26;32.02
72585;BME280;60618;40.084;32.908;2023-08-07T08:14:39;89243.81;;;30.50;32.45
72585;BME280;60618;40.084;32.908;2023-08-07T08:17:22;89234.34;;;31.18;31.97
72585;BME280;60618;40.084;32.908;2023-08-07T08:19:50;89228.59;;;31.00;31.95
72585;BME280;60618;40.084;32.908;2023-08-07T08:22:17;89216.56;;;30.17;33.23
72585;BME280;60618;40.084;32.908;2023-08-07T08:24:44;89226.38;;;30.46;32.74
72585;BME280;60618;40.084;32.908;2023-08-07T08:27:11;89229.03;;;30.95;32.18
72585;BME280;60618;40.084;32.908;2023-08-07T08:29:38;89226.03;;;30.91;31.77
72585;BME280;60618;40.084;32.908;2023-08-07T08:32:05;89227.72;;;31.10;32.50
72585;BME280;60618;40.084;32.908;2023-08-07T08:34:35;89226.47;;;31.52;32.08
72585;BME280;60618;40.084;32.908;2023-08-07T08:37:05;89232.34;;;32.15;30.83
72585;BME280;60618;40.084;32.908;2023-08-07T08:39:32;89228.53;;;31.92;30.54
72585;BME280;60618;40.084;32.908;2023-08-07T08:41:59;89228.59;;;31.26;31.54
72585;BME280;60618;40.084;32.908;2023-08-07T08:44:29;89235.56;;;31.54;31.51
72585;BME280;60618;40.084;32.908;2023-08-07T08:46:59;89234.88;;;31.81;31.07
72585;BME280;60618;40.084;32.908;2023-08-07T08:49:32;89235.63;;;31.70;29.83
72585;BME280;60618;40.084;32.908;2023-08-07T08:52:00;89228.41;;;32.04;30.29
72585;BME280;60618;40.084;32.908;2023-08-07T08:54:28;89232.03;;;32.66;29.49
72585;BME280;60618;40.084;32.908;2023-08-07T08:56:56;89228.09;;;32.55;29.15
72585;BME280;60618;40.084;32.908;2023-08-07T08:59:24;89227.47;;;31.72;29.95
72585;BME280;60618;40.084;32.908;2023-08-07T09:01:51;89223.81;;;31.40;30.36
72585;BME280;60618;40.084;32.908;2023-08-07T09:04:18;89224.31;;;30.84;31.31
72585;BME280;60618;40.084;32.908;2023-08-07T09:06:46;89231.13;;;31.22;30.04
72585;BME280;60618;40.084;32.908;2023-08-07T09:09:14;89236.13;;;31.25;30.41
72585;BME280;60618;40.084;32.908;2023-08-07T09:11:42;89227.41;;;31.17;30.03
72585;BME280;60618;40.084;32.908;2023-08-07T09:14:15;89230.34;;;31.74;30.25
72585;BME280;60618;40.084;32.908;2023-08-07T09:16:47;89232.75;;;32.37;28.67
72585;BME280;60618;40.084;32.908;2023-08-07T09:19:15;89231.19;;;31.90;28.79
72585;BME280;60618;40.084;32.908;2023-08-07T09:21:42;89230.84;;;31.29;29.88
72585;BME280;60618;40.084;32.908;2023-08-07T09:24:09;89231.72;;;31.20;29.76
72585;BME280;60618;40.084;32.908;2023-08-07T09:26:36;89227.59;;;31.60;29.36
72585;BME280;60618;40.084;32.908;2023-08-07T09:29:03;89227.75;;;32.19;28.95
72585;BME280;60618;40.084;32.908;2023-08-07T09:31:30;89227.72;;;32.47;28.57
72585;BME280;60618;40.084;32.908;2023-08-07T09:34:04;89223.34;;;32.71;28.32
72585;BME280;60618;40.084;32.908;2023-08-07T09:36:31;89227.06;;;32.62;27.88
72585;BME280;60618;40.084;32.908;2023-08-07T09:39:02;89225.44;;;32.57;27.97
72585;BME280;60618;40.084;32.908;2023-08-07T09:41:30;89230.72;;;32.37;28.58
72585;BME280;60618;40.084;32.908;2023-08-07T09:43:58;89219.34;;;32.74;28.24
72585;BME280;60618;40.084;32.908;2023-08-07T09:46:25;89219.00;;;33.43;27.88
72585;BME280;60618;40.084;32.908;2023-08-07T09:48:57;89215.06;;;33.64;27.16
72585;BME280;60618;40.084;32.908;2023-08-07T09:51:25;89214.47;;;32.59;28.08
72585;BME280;60618;40.084;32.908;2023-08-07T09:53:51;89215.56;;;31.68;29.36
72585;BME280;60618;40.084;32.908;2023-08-07T09:56:18;89203.94;;;31.83;29.34
72585;BME280;60618;40.084;32.908;2023-08-07T09:58:48;89205.97;;;31.69;29.49
72585;BME280;60618;40.084;32.908;2023-08-07T10:01:16;89200.66;;;31.73;29.37
72585;BME280;60618;40.084;32.908;2023-08-07T10:03:44;89203.41;;;31.59;29.18
72585;BME280;60618;40.084;32.908;2023-08-07T10:06:12;89198.69;;;31.20;30.08
72585;BME280;60618;40.084;32.908;2023-08-07T10:08:39;89200.25;;;31.92;29.22
72585;BME280;60618;40.084;32.908;2023-08-07T10:11:08;89207.59;;;32.74;28.48
72585;BME280;60618;40.084;32.908;2023-08-07T10:13:37;89202.94;;;33.55;26.96
72585;BME280;60618;40.084;32.908;2023-08-07T10:16:05;89203.34;;;33.97;26.13
72585;BME280;60618;40.084;32.908;2023-08-07T10:18:34;89204.34;;;33.25;26.25
72585;BME280;60618;40.084;32.908;2023-08-07T10:21:03;89200.91;;;32.63;27.53
72585;BME280;60618;40.084;32.908;2023-08-07T10:23:35;89198.59;;;32.44;27.29
72585;BME280;60618;40.084;32.908;2023-08-07T10:26:08;89206.13;;;32.14;28.08
72585;BME280;60618;40.084;32.908;2023-08-07T10:28:38;89204.22;;;32.75;27.56
72585;BME280;60618;40.084;32.908;2023-08-07T10:31:09;89203.66;;;33.56;26.49
72585;BME280;60618;40.084;32.908;2023-08-07T10:33:38;89204.00;;;34.13;25.14
72585;BME280;60618;40.084;32.908;2023-08-07T10:36:10;89201.69;;;34.59;24.73
72585;BME280;60618;40.084;32.908;2023-08-07T10:38:37;89198.94;;;34.59;24.86
72585;BME280;60618;40.084;32.908;2023-08-07T10:41:14;89199.88;;;32.86;26.15
72585;BME280;60618;40.084;32.908;2023-08-07T10:43:43;89199.47;;;32.78;26.82
72585;BME280;60618;40.084;32.908;2023-08-07T10:46:12;89199.88;;;32.86;26.96
72585;BME280;60618;40.084;32.908;2023-08-07T10:48:46;89194.94;;;31.96;27.93
72585;BME280;60618;40.084;32.908;2023-08-07T10:51:16;89195.97;;;31.89;27.71
72585;BME280;60618;40.084;32.908;2023-08-07T10:53:46;89187.63;;;32.30;27.58
72585;BME280;60618;40.084;32.908;2023-08-07T11:15:16;89187.44;;;32.85;27.17
72585;BME280;60618;40.084;32.908;2023-08-07T11:17:43;89186.56;;;32.67;27.24
72585;BME280;60618;40.084;32.908;2023-08-07T11:20:10;89179.53;;;32.64;27.44
72585;BME280;60618;40.084;32.908;2023-08-07T11:22:38;89174.63;;;33.08;26.82
72585;BME280;60618;40.084;32.908;2023-08-07T11:25:05;89184.09;;;32.43;27.57
72585;BME280;60618;40.084;32.908;2023-08-07T11:27:32;89172.66;;;32.94;27.41
72585;BME280;60618;40.084;32.908;2023-08-07T11:29:59;89173.06;;;33.68;26.40
72585;BME280;60618;40.084;32.908;2023-08-07T11:32:27;89169.19;;;34.24;24.86
72585;BME280;60618;40.084;32.908;2023-08-07T11:34:54;89173.19;;;34.03;25.07
72585;BME280;60618;40.084;32.908;2023-08-07T11:37:21;89167.25;;;33.93;25.82
72585;BME280;60618;40.084;32.908;2023-08-07T11:39:48;89167.06;;;33.08;26.65
72585;BME280;60618;40.084;32.908;2023-08-07T11:42:15;89162.16;;;33.38;26.43
72585;BME280;60618;40.084;32.908;2023-08-07T11:44:42;89164.59;;;32.69;27.02
72585;BME280;60618;40.084;32.908;2023-08-07T11:47:10;89163.00;;;32.80;27.41
72585;BME280;60618;40.084;32.908;2023-08-07T11:49:37;89158.50;;;32.86;27.57
72585;BME280;60618;40.084;32.908;2023-08-07T11:52:05;89156.19;;;32.35;27.71
72585;BME280;60618;40.084;32.908;2023-08-07T11:54:32;89154.97;;;32.70;26.93
72585;BME280;60618;40.084;32.908;2023-08-07T11:56:59;89151.66;;;32.87;26.68
72585;BME280;60618;40.084;32.908;2023-08-07T11:59:26;89162.19;;;32.77;26.71
72585;BME280;60618;40.084;32.908;2023-08-07T12:01:53;89154.63;;;32.78;26.97
72585;BME280;60618;40.084;32.908;2023-08-07T12:04:20;89155.75;;;32.86;26.65
72585;BME280;60618;40.084;32.908;2023-08-07T12:06:54;89158.59;;;33.20;26.09
72585;BME280;60618;40.084;32.908;2023-08-07T12:09:23;89164.47;;;32.51;26.87
72585;BME280;60618;40.084;32.908;2023-08-07T12:11:56;89157.88;;;33.03;26.39
72585;BME280;60618;40.084;32.908;2023-08-07T12:14:23;89154.34;;;33.82;25.02
72585;BME280;60618;40.084;32.908;2023-08-07T12:16:50;89158.94;;;34.62;24.72
72585;BME280;60618;40.084;32.908;2023-08-07T12:19:17;89145.53;;;33.70;24.91
72585;BME280;60618;40.084;32.908;2023-08-07T12:21:43;89144.06;;;33.51;25.28
72585;BME280;60618;40.084;32.908;2023-08-07T12:24:12;89146.63;;;33.96;24.67
72585;BME280;60618;40.084;32.908;2023-08-07T12:26:40;89145.31;;;33.32;25.32
72585;BME280;60618;40.084;32.908;2023-08-07T12:29:06;89129.00;;;32.75;26.59
72585;BME280;60618;40.084;32.908;2023-08-07T12:31:34;89149.97;;;33.27;25.28
72585;BME280;60618;40.084;32.908;2023-08-07T12:34:01;89150.47;;;33.55;25.19
72585;BME280;60618;40.084;32.908;2023-08-07T12:36:30;89144.28;;;33.73;24.79
72585;BME280;60618;40.084;32.908;2023-08-07T12:38:57;89140.22;;;33.58;24.81
72585;BME280;60618;40.084;32.908;2023-08-07T12:41:24;89148.00;;;33.14;25.75
72585;BME280;60618;40.084;32.908;2023-08-07T12:43:54;89144.09;;;33.69;24.99
72585;BME280;60618;40.084;32.908;2023-08-07T12:46:21;89147.13;;;33.91;24.14
72585;BME280;60618;40.084;32.908;2023-08-07T12:48:51;89138.63;;;33.86;24.69
72585;BME280;60618;40.084;32.908;2023-08-07T12:51:18;89134.03;;;34.62;23.20
72585;BME280;60618;40.084;32.908;2023-08-07T12:53:44;89132.19;;;35.24;23.71
72585;BME280;60618;40.084;32.908;2023-08-07T12:56:12;89141.00;;;34.46;23.45
72585;BME280;60618;40.084;32.908;2023-08-07T12:58:39;89129.53;;;33.50;24.24
72585;BME280;60618;40.084;32.908;2023-08-07T13:01:08;89139.34;;;33.06;24.87
72585;BME280;60618;40.084;32.908;2023-08-07T13:03:38;89131.94;;;32.79;25.78
72585;BME280;60618;40.084;32.908;2023-08-07T13:06:05;89144.28;;;33.08;25.41
72585;BME280;60618;40.084;32.908;2023-08-07T13:08:32;89141.28;;;33.51;24.30
72585;BME280;60618;40.084;32.908;2023-08-07T13:10:59;89130.63;;;33.12;24.57
72585;BME280;60618;40.084;32.908;2023-08-07T13:13:25;89125.19;;;33.79;24.07
72585;BME280;60618;40.084;32.908;2023-08-07T13:15:52;89121.16;;;34.33;23.63
72585;BME280;60618;40.084;32.908;2023-08-07T13:18:21;89137.44;;;34.79;23.00